Time;durP1;ratioP1;P1;durP2;ratioP2;P2;SDS_P1;SDS_P2;PMS_P1;PMS_P2;Temp;Humidity;BMP_temperature;BMP_pressure;BME280_temperature;BME280_humidity;BME280_pressure;Samples;Min_cycle;Max_cycle;Signal;HPM_P1;HPM_P2
2022/02/10 00:17:30;;;;;;;31.93;19.10;;;6.10;77.90;;;;;;5005833;28;20234;-68
2022/02/10 00:20:38;;;;;;;26.07;16.47;;;6.10;78.30;;;;;;5006419;28;20278;-68
2022/02/10 00:34:35;;;;;;;24.97;16.97;;;5.80;78.30;;;;;;5002325;28;20215;-68
2022/02/10 00:42:00;;;;;;;25.73;16.30;;;5.80;78.60;;;;;;5013886;28;20246;-68
2022/02/10 00:44:27;;;;;;;26.27;16.30;;;5.70;78.60;;;;;;5014249;28;20318;-68
2022/02/10 00:46:54;;;;;;;24.63;16.87;;;5.70;78.70;;;;;;5003396;28;20215;-68
2022/02/10 00:49:21;;;;;;;34.40;17.47;;;5.70;78.70;;;;;;4981155;28;20274;-68
2022/02/10 00:51:49;;;;;;;27.03;17.00;;;5.70;78.60;;;;;;5012451;28;20682;-67
2022/02/10 00:54:23;;;;;;;29.60;17.50;;;5.70;79.40;;;;;;4989756;28;20675;-67
2022/02/10 00:56:51;;;;;;;24.60;18.10;;;5.70;79.70;;;;;;5004319;28;20226;-67
2022/02/10 01:29:43;;;;;;;28.77;16.63;;;5.50;80.00;;;;;;5010282;28;20221;-66
2022/02/10 01:32:11;;;;;;;28.90;18.37;;;5.50;79.90;;;;;;5013134;28;20619;-67
2022/02/10 01:34:50;;;;;;;28.97;17.77;;;5.50;79.90;;;;;;5007070;28;20308;-66
2022/02/10 01:37:19;;;;;;;28.53;17.83;;;5.50;79.90;;;;;;5007942;28;20226;-67
2022/02/10 01:39:54;;;;;;;24.67;16.53;;;5.40;79.90;;;;;;5011159;28;20658;-67
2022/02/10 02:04:09;;;;;;;26.47;16.83;;;5.10;79.60;;;;;;5009137;28;20242;-67
2022/02/10 02:06:46;;;;;;;27.10;16.57;;;5.10;80.00;;;;;;5005043;28;20204;-67
2022/02/10 02:09:15;;;;;;;28.07;17.37;;;5.10;80.30;;;;;;5010055;28;20284;-67
2022/02/10 02:11:48;;;;;;;27.37;15.53;;;5.10;80.30;;;;;;5016877;28;20542;-67
2022/02/10 02:14:17;;;;;;;34.30;17.77;;;5.10;80.30;;;;;;5011993;28;20368;-67
2022/02/10 02:16:57;;;;;;;27.40;17.03;;;5.00;79.90;;;;;;5017046;28;20218;-67
2022/02/10 02:19:24;;;;;;;22.43;16.37;;;5.00;80.20;;;;;;5016871;28;20252;-67
2022/02/10 02:22:02;;;;;;;29.40;17.10;;;5.00;79.90;;;;;;5014166;28;20291;-67
2022/02/10 02:24:30;;;;;;;23.37;16.77;;;4.90;79.60;;;;;;5017269;28;20212;-67
2022/02/10 02:27:03;;;;;;;25.03;16.73;;;4.90;79.70;;;;;;5007805;28;20212;-67
2022/02/10 02:29:43;;;;;;;27.13;16.47;;;4.90;80.00;;;;;;5016636;28;20220;-67
2022/02/10 02:32:19;;;;;;;30.83;17.03;;;4.80;80.40;;;;;;5012899;28;20228;-67
2022/02/10 02:38:05;;;;;;;27.07;17.20;;;4.80;81.10;;;;;;4995457;28;20314;-67
2022/02/10 03:05:53;;;;;;;24.13;15.20;;;4.70;81.60;;;;;;5007695;28;20294;-67
2022/02/10 03:08:22;;;;;;;27.80;17.57;;;4.70;81.40;;;;;;5011328;28;20235;-67
2022/02/10 03:13:23;;;;;;;29.43;18.20;;;4.80;81.70;;;;;;5006582;28;20202;-67
2022/02/10 03:16:34;;;;;;;34.50;20.30;;;4.80;82.10;;;;;;5016181;28;20215;-67
2022/02/10 03:19:18;;;;;;;35.83;21.00;;;4.80;82.20;;;;;;5006651;28;20304;-67
2022/02/10 04:00:57;;;;;;;32.63;20.23;;;4.90;84.10;;;;;;5008607;28;20639;-68
2022/02/10 04:16:45;;;;;;;32.13;18.73;;;5.00;82.30;;;;;;5011933;28;20214;-67
2022/02/10 04:22:02;;;;;;;32.80;21.30;;;4.80;81.60;;;;;;5004290;28;20206;-67
2022/02/10 04:53:23;;;;;;;31.33;21.53;;;4.80;84.40;;;;;;5000266;28;20277;-67
2022/02/10 04:56:55;;;;;;;31.40;18.37;;;5.00;85.40;;;;;;5007881;28;20551;-67
2022/02/10 05:34:08;;;;;;;46.73;24.80;;;4.30;82.90;;;;;;4996317;28;20222;-66
2022/02/10 05:36:38;;;;;;;33.03;22.97;;;4.30;83.70;;;;;;5013550;28;20241;-66
2022/02/10 05:52:34;;;;;;;51.30;26.73;;;4.30;84.70;;;;;;5000011;28;20202;-66
2022/02/10 05:58:10;;;;;;;36.67;24.07;;;4.20;85.10;;;;;;4984348;28;20240;-66
2022/02/10 06:55:39;;;;;;;37.57;23.77;;;4.20;85.20;;;;;;4996864;28;20547;-66
2022/02/10 07:03:56;;;;;;;41.60;24.17;;;4.60;83.60;;;;;;5001671;28;20734;-66
2022/02/10 07:57:42;;;;;;;35.47;22.97;;;8.90;66.80;;;;;;5008827;28;20291;-66
2022/02/10 09:04:06;;;;;;;37.73;24.50;;;9.60;71.20;;;;;;5003635;28;20200;-66
2022/02/10 10:00:53;;;;;;;38.17;21.80;;;12.10;66.20;;;;;;5009090;28;20260;-66
2022/02/10 10:03:32;;;;;;;34.77;22.27;;;12.20;66.20;;;;;;5010517;28;20329;-66
2022/02/10 10:06:24;;;;;;;36.07;21.73;;;12.30;65.80;;;;;;5012601;28;20218;-66
2022/02/10 10:09:36;;;;;;;30.17;21.20;;;12.40;65.90;;;;;;5016148;28;20566;-66
2022/02/10 10:15:05;;;;;;;40.33;22.17;;;12.70;65.70;;;;;;5008801;28;20269;-67
2022/02/10 10:22:47;;;;;;;45.23;21.67;;;12.90;64.20;;;;;;5009065;28;20325;-66
2022/02/10 10:51:15;;;;;;;26.63;16.30;;;13.90;61.50;;;;;;5004241;28;20217;-67
2022/02/10 10:54:05;;;;;;;31.17;15.50;;;13.90;61.00;;;;;;5026537;28;20220;-67
2022/02/10 10:56:37;;;;;;;23.83;15.10;;;14.00;61.10;;;;;;5009882;28;20309;-67
2022/02/10 11:22:14;;;;;;;22.50;12.97;;;14.60;59.60;;;;;;4990181;28;20308;-68
2022/02/10 11:36:38;;;;;;;20.27;8.23;;;15.80;58.20;;;;;;5007911;28;20671;-68
2022/02/10 11:42:13;;;;;;;15.23;10.07;;;16.10;57.50;;;;;;5008513;28;20212;-68
2022/02/10 12:43:58;;;;;;;13.53;4.20;;;16.80;55.00;;;;;;5006583;28;20233;-67
2022/02/10 13:03:05;;;;;;;9.80;4.20;;;17.00;54.90;;;;;;5004072;28;20234;-68
2022/02/10 14:09:48;;;;;;;10.67;5.03;;;16.70;51.90;;;;;;5015726;28;20640;-70
2022/02/10 14:14:49;;;;;;;12.80;4.70;;;16.60;52.10;;;;;;5014753;28;20211;-70
2022/02/10 14:17:28;;;;;;;11.57;4.63;;;16.60;52.20;;;;;;5008116;28;20306;-70
2022/02/10 14:20:00;;;;;;;9.73;4.10;;;16.60;52.30;;;;;;5017816;28;20220;-70
2022/02/10 14:28:03;;;;;;;6.80;3.90;;;16.60;52.70;;;;;;5010610;28;20218;-69
2022/02/10 14:30:33;;;;;;;15.60;4.40;;;16.60;52.10;;;;;;5013020;28;20212;-70
2022/02/10 14:33:00;;;;;;;9.57;4.80;;;16.60;52.40;;;;;;5003509;28;20227;-71
2022/02/10 14:35:40;;;;;;;12.57;4.23;;;16.50;52.60;;;;;;4998341;28;20325;-70
2022/02/10 14:38:34;;;;;;;9.83;4.50;;;16.50;52.50;;;;;;4998764;28;20234;-70
2022/02/10 16:18:45;;;;;;;16.83;8.10;;;14.50;62.70;;;;;;4999081;28;20209;-71
2022/02/10 16:21:17;;;;;;;14.10;8.03;;;14.40;63.10;;;;;;4999175;28;20258;-71
2022/02/10 16:23:47;;;;;;;16.50;9.03;;;14.30;63.30;;;;;;5014823;28;20199;-71
2022/02/10 16:26:17;;;;;;;24.50;9.00;;;14.30;63.30;;;;;;5000599;28;20210;-71
2022/02/10 16:28:44;;;;;;;17.87;9.13;;;14.10;63.70;;;;;;5015836;28;20236;-71
2022/02/10 16:31:14;;;;;;;14.77;8.23;;;14.10;64.00;;;;;;5009622;28;20268;-71
2022/02/10 16:33:47;;;;;;;18.27;8.27;;;14.00;63.90;;;;;;5009291;28;20217;-70
2022/02/10 16:36:17;;;;;;;19.93;8.33;;;13.90;64.20;;;;;;5007255;28;20697;-70
2022/02/10 16:38:45;;;;;;;18.87;8.03;;;13.80;64.60;;;;;;5010266;28;20657;-71
2022/02/10 16:41:14;;;;;;;20.50;8.53;;;13.70;64.70;;;;;;5017180;28;20557;-70
2022/02/10 16:43:46;;;;;;;16.87;8.37;;;13.60;65.00;;;;;;5007133;28;20300;-70
2022/02/10 16:46:18;;;;;;;14.40;8.20;;;13.60;65.50;;;;;;5017476;28;20200;-71
2022/02/10 16:48:45;;;;;;;17.73;8.03;;;13.40;65.30;;;;;;5007577;28;20213;-71
2022/02/10 16:51:19;;;;;;;19.47;8.47;;;13.40;65.70;;;;;;5016001;28;20210;-70
2022/02/10 16:53:58;;;;;;;16.30;8.43;;;13.30;66.00;;;;;;5015838;28;20218;-70
2022/02/10 16:56:38;;;;;;;18.97;9.20;;;13.20;66.50;;;;;;5009696;28;20207;-70
2022/02/10 17:19:05;;;;;;;22.27;10.67;;;12.50;69.70;;;;;;5005071;28;20201;-71
2022/02/10 17:27:21;;;;;;;21.30;9.37;;;12.30;69.80;;;;;;5013935;28;20204;-70
2022/02/10 17:32:59;;;;;;;21.33;8.57;;;12.20;70.60;;;;;;5015688;28;20199;-70
2022/02/10 17:52:13;;;;;;;28.20;13.43;;;11.40;70.20;;;;;;5002586;28;20219;-70
2022/02/10 17:54:42;;;;;;;29.33;11.50;;;11.30;69.90;;;;;;5002585;28;20211;-71
2022/02/10 17:57:10;;;;;;;23.13;12.77;;;11.10;69.70;;;;;;4998843;28;20225;-70
2022/02/10 17:59:37;;;;;;;26.00;12.77;;;11.00;70.70;;;;;;5001710;28;20291;-70
2022/02/10 18:02:04;;;;;;;22.30;11.50;;;10.90;71.40;;;;;;5017224;28;20574;-70
2022/02/10 18:04:32;;;;;;;21.00;11.33;;;10.90;71.30;;;;;;5017107;28;20216;-70
2022/02/10 18:07:00;;;;;;;19.53;11.70;;;10.80;71.70;;;;;;5014754;28;20214;-70
2022/02/10 18:15:14;;;;;;;18.83;10.47;;;10.60;72.30;;;;;;4958954;29;20296;-70
2022/02/10 18:17:48;;;;;;;24.87;12.50;;;10.50;73.40;;;;;;4943167;29;20239;-70
2022/02/10 18:20:22;;;;;;;30.97;13.53;;;10.40;73.20;;;;;;4976050;28;20584;-70
2022/02/10 18:23:03;;;;;;;20.97;12.37;;;10.40;73.70;;;;;;5004188;28;20229;-70
2022/02/10 18:25:46;;;;;;;22.00;11.80;;;10.40;74.00;;;;;;5004746;28;20234;-70
2022/02/10 18:28:53;;;;;;;22.20;11.60;;;10.40;74.30;;;;;;5017066;28;20278;-70
2022/02/10 19:01:47;;;;;;;18.53;10.40;;;10.70;74.40;;;;;;5000280;28;20298;-70
2022/02/10 19:09:33;;;;;;;21.17;11.70;;;10.60;73.80;;;;;;5004515;28;20197;-70
2022/02/10 19:12:04;;;;;;;23.93;14.40;;;10.40;72.60;;;;;;5001011;28;20209;-70
2022/02/10 19:14:36;;;;;;;24.33;13.40;;;10.30;73.90;;;;;;5003667;28;20205;-70
2022/02/10 19:17:05;;;;;;;19.53;12.47;;;10.10;75.40;;;;;;5005432;28;20213;-71
2022/02/10 19:19:33;;;;;;;25.60;13.03;;;10.10;76.40;;;;;;5010552;28;20614;-71
2022/02/10 19:22:00;;;;;;;20.47;12.20;;;10.10;77.00;;;;;;5007252;28;20208;-70
2022/02/10 19:24:28;;;;;;;22.73;13.27;;;10.10;77.60;;;;;;5015456;28;20624;-70
2022/02/10 19:26:55;;;;;;;30.30;13.67;;;10.10;76.20;;;;;;5004994;28;20645;-71
2022/02/10 19:29:25;;;;;;;24.30;13.83;;;10.00;75.90;;;;;;5005000;28;20232;-72
2022/02/10 19:31:54;;;;;;;25.33;13.43;;;9.90;76.70;;;;;;5008802;28;20523;-70
2022/02/10 19:34:21;;;;;;;23.43;12.50;;;9.90;77.30;;;;;;5000458;28;20205;-70
2022/02/10 19:37:11;;;;;;;26.87;12.57;;;9.90;77.70;;;;;;5007483;28;20295;-70
2022/02/10 19:39:42;;;;;;;23.47;12.97;;;9.90;77.80;;;;;;4983909;28;20209;-70
2022/02/10 19:42:09;;;;;;;32.93;14.63;;;9.90;77.80;;;;;;5007645;28;20255;-70
2022/02/10 19:44:37;;;;;;;28.53;15.93;;;9.90;77.90;;;;;;5006086;28;20275;-70
2022/02/10 19:47:05;;;;;;;26.70;13.90;;;9.90;78.30;;;;;;5007400;28;20203;-70
2022/02/10 19:49:36;;;;;;;29.40;15.93;;;10.00;78.80;;;;;;5010998;28;20333;-70
2022/02/10 19:52:05;;;;;;;27.40;13.47;;;10.00;78.80;;;;;;5013728;28;20205;-70
2022/02/10 19:54:38;;;;;;;25.97;14.10;;;10.00;78.40;;;;;;5007368;28;20314;-69
2022/02/10 19:57:06;;;;;;;29.80;14.53;;;10.00;78.30;;;;;;5008692;28;20208;-69
2022/02/10 19:59:33;;;;;;;26.50;14.10;;;10.00;78.40;;;;;;5010205;28;20219;-69
2022/02/10 20:02:02;;;;;;;23.63;13.87;;;10.00;78.50;;;;;;5006748;28;20614;-70
2022/02/10 20:04:30;;;;;;;23.47;14.70;;;9.90;78.70;;;;;;5013194;28;20200;-69
2022/02/10 20:06:58;;;;;;;24.13;15.07;;;10.00;78.60;;;;;;5010954;28;20628;-70
2022/02/10 20:09:25;;;;;;;27.20;14.57;;;9.90;78.60;;;;;;5010264;28;20579;-69
2022/02/10 20:11:54;;;;;;;24.63;13.70;;;9.90;78.80;;;;;;5016251;28;20214;-69
2022/02/10 20:14:23;;;;;;;20.70;12.43;;;9.90;78.80;;;;;;5008229;28;20206;-69
2022/02/10 20:16:52;;;;;;;27.20;13.93;;;9.90;78.70;;;;;;5009666;28;20243;-70
2022/02/10 20:19:20;;;;;;;21.97;14.63;;;9.90;78.30;;;;;;5007295;28;20550;-70
2022/02/10 20:21:47;;;;;;;23.97;12.63;;;9.80;77.90;;;;;;5017432;28;20230;-69
2022/02/10 20:24:14;;;;;;;23.13;13.87;;;9.80;77.80;;;;;;5002084;28;20215;-70
2022/02/10 20:26:43;;;;;;;23.10;14.87;;;9.70;77.80;;;;;;4998717;28;20200;-70
2022/02/10 20:29:16;;;;;;;28.13;15.47;;;9.70;77.90;;;;;;5017732;28;20199;-70
2022/02/10 20:31:45;;;;;;;24.57;14.07;;;9.60;78.00;;;;;;5000557;28;20209;-70
2022/02/10 20:34:14;;;;;;;24.50;13.30;;;9.60;78.00;;;;;;5000726;28;20199;-71
2022/02/10 20:36:42;;;;;;;28.77;15.97;;;9.50;76.80;;;;;;5006189;28;20290;-71
2022/02/10 20:39:09;;;;;;;36.93;15.47;;;9.30;77.60;;;;;;5010341;28;20267;-70
2022/02/10 20:41:37;;;;;;;30.07;16.50;;;9.30;78.40;;;;;;5005274;28;20216;-70
2022/02/10 20:44:05;;;;;;;29.43;14.90;;;9.20;78.90;;;;;;5006815;28;20200;-69
2022/02/10 20:46:39;;;;;;;31.87;16.50;;;9.20;79.30;;;;;;5013647;28;20286;-69
2022/02/10 20:49:15;;;;;;;25.17;14.77;;;9.10;79.20;;;;;;5005125;28;20208;-69
2022/02/10 20:51:47;;;;;;;25.87;15.90;;;9.00;79.00;;;;;;5008900;28;20277;-70
2022/02/10 20:54:15;;;;;;;29.77;15.10;;;9.00;79.40;;;;;;5003840;28;20212;-70
2022/02/10 20:56:43;;;;;;;23.63;14.20;;;9.00;79.50;;;;;;5006444;28;20299;-70
2022/02/10 21:02:00;;;;;;;20.63;12.17;;;8.90;79.00;;;;;;5004708;28;20634;-69
2022/02/10 21:04:31;;;;;;;28.00;13.57;;;8.80;77.20;;;;;;5004656;28;20707;-70
2022/02/10 21:07:06;;;;;;;25.50;14.20;;;8.70;77.00;;;;;;5011750;28;20204;-70
2022/02/10 21:12:09;;;;;;;24.47;14.67;;;8.50;77.90;;;;;;5003464;28;20232;-70
2022/02/10 21:14:37;;;;;;;23.60;15.93;;;8.40;78.10;;;;;;4998095;28;20216;-69
2022/02/10 21:17:08;;;;;;;24.27;15.00;;;8.40;79.00;;;;;;5010659;28;20287;-70
2022/02/10 21:19:37;;;;;;;33.00;17.53;;;8.30;79.60;;;;;;5014512;28;20667;-70
2022/02/10 21:22:14;;;;;;;31.77;17.30;;;8.30;80.10;;;;;;5012222;28;20229;-70
2022/02/10 21:24:48;;;;;;;32.03;18.63;;;8.30;80.70;;;;;;5013131;28;20660;-69
2022/02/10 21:29:42;;;;;;;28.00;17.10;;;8.20;81.00;;;;;;5015322;28;20619;-70
2022/02/10 21:32:09;;;;;;;36.07;18.90;;;8.20;80.80;;;;;;5007638;28;20208;-69
2022/02/10 21:34:49;;;;;;;39.77;19.97;;;8.20;80.90;;;;;;5005264;28;20266;-69
2022/02/10 21:37:20;;;;;;;42.03;21.60;;;8.20;81.10;;;;;;4998613;28;20208;-69
2022/02/10 21:39:58;;;;;;;42.27;20.60;;;8.10;81.30;;;;;;5016534;28;20223;-70
2022/02/10 21:47:55;;;;;;;34.20;19.63;;;8.00;82.20;;;;;;5010193;28;20647;-70
2022/02/10 22:06:21;;;;;;;31.77;19.47;;;7.70;82.70;;;;;;4993457;28;20609;-70
2022/02/10 22:19:42;;;;;;;32.07;18.97;;;7.50;80.80;;;;;;4997311;28;20240;-69
2022/02/10 22:22:18;;;;;;;40.60;21.57;;;7.40;80.70;;;;;;5016973;28;20305;-70
2022/02/10 22:24:46;;;;;;;39.97;21.00;;;7.40;80.80;;;;;;4999127;28;20246;-70
2022/02/10 22:27:19;;;;;;;36.87;21.33;;;7.30;81.00;;;;;;4999849;28;20209;-70
2022/02/10 22:29:52;;;;;;;47.67;23.63;;;7.20;81.30;;;;;;5004231;28;20201;-70
2022/02/10 22:32:39;;;;;;;39.13;24.00;;;7.20;81.70;;;;;;5005785;28;20238;-70
2022/02/10 22:35:06;;;;;;;32.67;21.70;;;7.10;82.90;;;;;;5006429;28;20289;-70
2022/02/10 22:37:33;;;;;;;37.70;22.77;;;7.10;83.50;;;;;;5014199;28;20227;-70
2022/02/10 22:40:10;;;;;;;36.77;23.37;;;7.10;83.40;;;;;;5008456;28;20250;-70
2022/02/10 22:42:53;;;;;;;41.80;23.40;;;7.00;83.30;;;;;;5013167;28;20238;-70
2022/02/10 22:45:20;;;;;;;40.17;21.73;;;7.00;83.30;;;;;;5014873;28;20629;-70
2022/02/10 22:47:47;;;;;;;37.07;22.63;;;6.90;84.10;;;;;;5016142;28;20615;-70
2022/02/10 22:50:14;;;;;;;42.10;23.23;;;6.90;83.80;;;;;;5015153;28;20245;-70
2022/02/10 22:52:41;;;;;;;37.07;22.73;;;6.90;84.00;;;;;;5004434;28;20207;-70
2022/02/10 22:55:08;;;;;;;38.87;22.57;;;6.80;83.80;;;;;;4999623;28;20214;-70
2022/02/10 22:57:35;;;;;;;38.77;21.53;;;6.80;83.90;;;;;;5005701;28;20210;-70
2022/02/10 23:00:34;;;;;;;44.20;23.67;;;6.80;83.90;;;;;;5015404;28;20595;-67
2022/02/10 23:03:02;;;;;;;39.77;23.57;;;6.70;84.00;;;;;;5006294;28;20718;-69
2022/02/10 23:05:29;;;;;;;34.37;20.40;;;6.70;84.50;;;;;;5002249;28;20303;-67
2022/02/10 23:07:58;;;;;;;40.70;21.83;;;6.70;85.00;;;;;;5002130;28;20637;-67
2022/02/10 23:10:47;;;;;;;39.40;23.07;;;6.70;85.10;;;;;;5003719;28;20203;-67
2022/02/10 23:13:28;;;;;;;41.00;21.57;;;6.70;84.90;;;;;;5005852;28;20214;-67
2022/02/10 23:15:57;;;;;;;34.80;20.70;;;6.60;84.40;;;;;;5008276;28;20298;-70
2022/02/10 23:18:28;;;;;;;32.93;19.70;;;6.60;83.90;;;;;;5014915;28;20214;-70
2022/02/10 23:20:57;;;;;;;34.93;20.90;;;6.60;83.30;;;;;;5002314;28;20214;-67
2022/02/10 23:23:28;;;;;;;36.30;21.20;;;6.50;83.30;;;;;;5001914;28;20722;-67
2022/02/10 23:25:56;;;;;;;41.50;23.73;;;6.40;83.10;;;;;;5013154;28;20221;-67
2022/02/10 23:28:28;;;;;;;44.30;26.40;;;6.30;83.00;;;;;;5015751;28;20214;-69
2022/02/10 23:30:58;;;;;;;40.40;21.67;;;6.20;84.30;;;;;;5015730;28;20578;-69
2022/02/10 23:33:32;;;;;;;45.83;23.70;;;6.20;85.30;;;;;;5000289;28;20218;-68
2022/02/10 23:38:50;;;;;;;45.10;27.37;;;6.00;85.70;;;;;;5012371;28;20213;-70
2022/02/10 23:44:10;;;;;;;43.83;24.27;;;6.10;88.10;;;;;;5004836;28;20578;-68
2022/02/10 23:46:39;;;;;;;42.53;25.03;;;6.10;88.10;;;;;;5012526;28;20194;-67
2022/02/10 23:49:07;;;;;;;48.03;26.27;;;6.10;87.90;;;;;;5007234;28;20634;-67
2022/02/10 23:51:37;;;;;;;36.73;23.97;;;6.10;87.50;;;;;;5009502;28;20211;-68
2022/02/10 23:54:04;;;;;;;47.17;29.37;;;6.10;87.50;;;;;;5010896;28;20215;-66
2022/02/10 23:56:38;;;;;;;47.30;27.40;;;6.10;87.80;;;;;;5011411;28;20210;-70
2022/02/10 23:59:19;;;;;;;39.13;22.23;;;6.10;88.40;;;;;;5012197;28;20228;-67
